Time;durP1;ratioP1;P1;durP2;ratioP2;P2;SDS_P1;SDS_P2;PMS_P1;PMS_P2;Temp;Humidity;BMP_temperature;BMP_pressure;BME280_temperature;BME280_humidity;BME280_pressure;Samples;Min_cycle;Max_cycle;Signal;HPM_P1;HPM_P2
2023/05/29 00:02:21;;;;;;;4.53;3.47;;;11.70;99.90;12.20;94243.00;;;;7396243;19;20292;-75
2023/05/29 00:04:55;;;;;;;6.25;3.85;;;11.60;99.90;12.40;94244.00;;;;7399733;19;20185;-76
2023/05/29 00:07:32;;;;;;;8.20;3.90;;;11.60;99.90;12.40;94245.00;;;;7396665;19;20156;-75
2023/05/29 00:10:15;;;;;;;8.85;3.35;;;11.60;99.90;12.40;94246.00;;;;7398430;19;20141;-76
2023/05/29 00:12:48;;;;;;;7.75;4.13;;;11.60;86.80;12.40;94242.00;;;;7399810;19;20121;-75
2023/05/29 00:15:23;;;;;;;5.57;4.13;;;11.50;58.60;12.50;94247.00;;;;7399967;19;20116;-76
2023/05/29 00:17:50;;;;;;;9.93;4.22;;;11.60;44.10;12.40;94234.00;;;;7397347;19;20216;-75
2023/05/29 00:20:41;;;;;;;7.80;4.03;;;11.60;38.10;12.10;94212.00;;;;7398582;19;20149;-76
2023/05/29 00:23:15;;;;;;;10.60;4.20;;;11.40;27.50;12.00;94228.00;;;;7399648;19;20145;-76
2023/05/29 00:25:48;;;;;;;6.63;3.63;;;11.30;22.50;11.90;94234.00;;;;7399333;19;20128;-75
2023/05/29 00:28:17;;;;;;;8.23;3.67;;;11.20;55.10;11.90;94202.00;;;;7398900;19;20758;-75
2023/05/29 00:30:50;;;;;;;6.97;3.95;;;11.10;87.70;12.00;94216.00;;;;7397955;19;20522;-76
2023/05/29 00:33:18;;;;;;;7.72;4.03;;;11.10;40.30;12.00;94232.00;;;;7399385;19;20128;-75
2023/05/29 00:35:51;;;;;;;6.10;3.83;;;11.10;28.40;12.10;94235.00;;;;7397111;19;20124;-75
2023/05/29 00:38:25;;;;;;;8.63;4.03;;;11.10;7.10;12.00;94203.00;;;;7395815;19;20153;-76
2023/05/29 00:41:07;;;;;;;7.75;4.32;;;11.10;1.00;12.00;94227.00;;;;7397937;19;20140;-75
2023/05/29 00:43:41;;;;;;;9.23;4.50;;;11.00;1.00;11.90;94220.00;;;;7411144;19;20493;-75
2023/05/29 00:46:31;;;;;;;9.00;4.10;;;11.00;1.00;11.80;94235.00;;;;7411478;19;20165;-75
2023/05/29 00:49:06;;;;;;;9.75;4.47;;;10.90;1.00;11.90;94222.00;;;;7413365;19;20125;-76
2023/05/29 00:51:33;;;;;;;7.15;3.95;;;10.80;1.00;11.80;94226.00;;;;7412724;19;20135;-76
2023/05/29 00:54:00;;;;;;;10.27;4.50;;;10.80;1.00;11.70;94226.00;;;;7411607;19;20141;-75
2023/05/29 00:56:38;;;;;;;8.07;4.15;;;10.80;1.00;11.70;94215.00;;;;7413478;19;20129;-76
2023/05/29 00:59:13;;;;;;;11.02;4.50;;;10.80;1.00;11.70;94218.00;;;;7413392;19;20132;-76
2023/05/29 01:02:02;;;;;;;6.68;3.72;;;10.80;1.00;11.70;94232.00;;;;7405294;19;20149;-73
2023/05/29 01:04:36;;;;;;;8.32;4.20;;;10.90;1.00;11.60;94218.00;;;;7409686;19;20179;-73
2023/05/29 01:07:03;;;;;;;8.73;4.50;;;10.80;1.00;11.50;94209.00;;;;7409494;19;20639;-73
2023/05/29 01:09:37;;;;;;;7.55;4.20;;;10.80;1.00;11.50;94219.00;;;;7411139;19;20165;-73
2023/05/29 01:12:24;;;;;;;6.25;4.15;;;10.80;1.00;11.50;94218.00;;;;7410769;19;20127;-73
2023/05/29 01:15:26;;;;;;;6.03;4.07;;;10.70;1.00;11.40;94189.00;;;;7409565;19;20623;-72
2023/05/29 01:18:43;;;;;;;6.00;3.90;;;10.80;1.00;11.40;94207.00;;;;7409855;19;20583;-73
2023/05/29 01:21:32;;;;;;;6.70;3.85;;;10.70;1.00;11.40;94213.00;;;;7411081;19;20136;-73
2023/05/29 01:24:09;;;;;;;13.77;3.90;;;10.70;1.00;11.30;94214.00;;;;7408906;19;20640;-72
2023/05/29 01:27:09;;;;;;;8.88;4.22;;;10.60;1.00;11.20;94209.00;;;;7408594;19;20145;-73
2023/05/29 01:29:46;;;;;;;6.65;3.83;;;10.50;1.00;11.10;94198.00;;;;7409352;19;20169;-73
2023/05/29 01:32:13;;;;;;;8.37;3.83;;;10.40;1.00;11.20;94180.00;;;;7409054;19;20146;-73
2023/05/29 01:34:46;;;;;;;7.10;4.05;;;10.40;1.00;11.10;94186.00;;;;7410336;19;20587;-73
2023/05/29 01:37:13;;;;;;;8.07;3.88;;;10.40;1.00;11.00;94183.00;;;;7409253;19;20184;-72
2023/05/29 01:39:48;;;;;;;7.72;3.55;;;10.30;1.00;11.00;94193.00;;;;7409003;19;20165;-72
2023/05/29 01:42:22;;;;;;;12.13;3.92;;;10.40;1.00;11.00;94178.00;;;;7406537;19;20133;-72
2023/05/29 01:44:57;;;;;;;6.35;3.67;;;10.30;1.00;10.90;94205.00;;;;7408423;19;20124;-73
2023/05/29 01:47:31;;;;;;;7.95;3.95;;;10.30;1.00;11.10;94209.00;;;;7408465;19;20147;-73
2023/05/29 01:50:06;;;;;;;6.60;4.00;;;10.40;1.00;11.00;94209.00;;;;7407919;19;20679;-73
2023/05/29 01:52:35;;;;;;;6.13;4.20;;;10.30;1.00;10.90;94211.00;;;;7408584;19;20157;-73
2023/05/29 01:55:09;;;;;;;8.18;3.50;;;10.20;1.00;10.90;94186.00;;;;7400765;19;20136;-73
2023/05/29 01:57:55;;;;;;;6.23;3.83;;;10.20;1.00;10.80;94209.00;;;;7401489;19;20137;-73
2023/05/29 02:00:23;;;;;;;7.72;3.97;;;10.10;1.00;10.70;94191.00;;;;7401394;19;20255;-73
2023/05/29 02:03:03;;;;;;;8.90;4.07;;;10.00;1.00;10.60;94201.00;;;;7399881;19;20186;-73
2023/05/29 02:05:44;;;;;;;6.43;4.27;;;10.00;1.00;10.60;94194.00;;;;7402433;19;20200;-73
2023/05/29 02:08:19;;;;;;;7.57;3.60;;;9.90;1.00;10.50;94182.00;;;;7401112;19;20535;-73
2023/05/29 02:10:46;;;;;;;5.77;3.63;;;9.80;1.00;10.60;94200.00;;;;7400558;19;20153;-73
2023/05/29 02:13:20;;;;;;;7.35;3.83;;;9.80;1.00;10.60;94179.00;;;;7401168;19;20144;-73
2023/05/29 02:15:47;;;;;;;6.43;3.80;;;9.70;1.00;10.50;94178.00;;;;7400091;19;20159;-73
2023/05/29 02:18:21;;;;;;;5.53;3.73;;;9.80;1.00;10.50;94172.00;;;;7400490;19;20137;-72
2023/05/29 02:20:49;;;;;;;6.63;3.73;;;9.80;1.00;10.60;94161.00;;;;7401526;19;20140;-73
2023/05/29 02:23:23;;;;;;;8.43;4.10;;;9.80;1.00;10.60;94189.00;;;;7402111;19;20181;-73
2023/05/29 02:26:13;;;;;;;7.13;4.07;;;9.70;1.00;10.60;94192.00;;;;7399767;19;20630;-73
2023/05/29 02:28:47;;;;;;;6.93;3.60;;;9.70;1.00;10.60;94190.00;;;;7400294;19;20144;-73
2023/05/29 02:31:21;;;;;;;11.60;4.10;;;9.70;1.00;10.70;94184.00;;;;7401801;19;20132;-73
2023/05/29 02:33:56;;;;;;;8.20;4.03;;;9.70;1.00;10.80;94186.00;;;;7401511;19;20512;-73
2023/05/29 02:36:23;;;;;;;7.97;3.83;;;9.80;1.00;10.70;94171.00;;;;7401247;19;20166;-73
2023/05/29 02:38:57;;;;;;;9.05;3.80;;;9.80;1.00;10.70;94191.00;;;;7397836;19;20133;-73
2023/05/29 02:41:30;;;;;;;6.72;3.42;;;9.80;1.00;10.60;94166.00;;;;7400856;19;20128;-73
2023/05/29 02:44:18;;;;;;;10.83;4.37;;;9.80;1.00;10.60;94185.00;;;;7399457;19;20145;-73
2023/05/29 02:47:06;;;;;;;6.00;4.23;;;9.80;1.00;10.60;94172.00;;;;7401422;19;20125;-73
2023/05/29 02:49:39;;;;;;;6.80;4.10;;;9.70;1.00;10.40;94160.00;;;;7398837;19;20493;-73
2023/05/29 02:52:13;;;;;;;5.10;3.40;;;9.60;1.00;10.50;94172.00;;;;7401107;19;20140;-73
2023/05/29 02:54:40;;;;;;;7.80;3.77;;;9.50;1.00;10.40;94152.00;;;;7400444;19;20148;-73
2023/05/29 02:57:15;;;;;;;7.03;3.70;;;9.50;1.00;10.40;94191.00;;;;7398417;19;20144;-72
2023/05/29 02:59:49;;;;;;;8.07;3.50;;;9.40;1.00;10.20;94163.00;;;;7399289;19;20144;-73
2023/05/29 03:02:29;;;;;;;5.60;3.73;;;9.30;1.00;10.20;94167.00;;;;7398034;19;20627;-73
2023/05/29 03:05:25;;;;;;;5.57;3.67;;;9.30;1.00;10.20;94187.00;;;;7398237;19;20152;-73
2023/05/29 03:07:52;;;;;;;5.68;3.58;;;9.30;1.00;10.30;94153.00;;;;7399853;19;20136;-73
2023/05/29 03:10:40;;;;;;;6.53;3.97;;;9.40;1.00;10.20;94152.00;;;;7398622;19;20633;-73
2023/05/29 03:13:14;;;;;;;6.80;4.00;;;9.30;1.00;10.10;94182.00;;;;7398736;19;20164;-73
2023/05/29 03:15:48;;;;;;;6.63;3.83;;;9.30;1.00;10.10;94185.00;;;;7400319;19;20647;-73
2023/05/29 03:18:23;;;;;;;7.40;4.03;;;9.30;1.00;10.10;94178.00;;;;7397295;19;20133;-73
2023/05/29 03:20:57;;;;;;;7.53;3.77;;;9.30;1.00;10.10;94155.00;;;;7398316;19;20165;-73
2023/05/29 03:23:31;;;;;;;7.13;3.77;;;9.30;1.00;10.10;94179.00;;;;7399448;19;20192;-74
2023/05/29 03:26:05;;;;;;;6.63;3.63;;;9.30;1.00;10.10;94170.00;;;;7398552;19;20482;-73
2023/05/29 03:28:39;;;;;;;6.20;3.13;;;9.40;1.00;10.10;94171.00;;;;7398589;19;20148;-73
2023/05/29 03:31:13;;;;;;;7.07;3.80;;;9.40;1.00;10.20;94163.00;;;;7398107;19;20137;-73
2023/05/29 03:33:49;;;;;;;5.80;3.50;;;9.40;1.00;10.10;94190.00;;;;7398441;19;20155;-73
2023/05/29 03:36:22;;;;;;;7.17;3.93;;;9.40;1.00;10.20;94171.00;;;;7398421;19;20639;-73
2023/05/29 03:38:55;;;;;;;6.73;3.53;;;9.40;1.00;10.30;94157.00;;;;7396106;19;20155;-72
2023/05/29 03:41:43;;;;;;;9.80;3.77;;;9.40;1.00;10.40;94185.00;;;;7393225;19;20149;-72
2023/05/29 03:44:25;;;;;;;8.37;4.10;;;9.50;1.00;10.50;94164.00;;;;7391601;19;20149;-73
2023/05/29 03:46:58;;;;;;;5.40;3.50;;;9.60;1.00;10.50;94165.00;;;;7393243;19;20485;-73
2023/05/29 03:49:26;;;;;;;7.77;3.80;;;9.60;1.00;10.60;94163.00;;;;7395128;19;20144;-73
2023/05/29 03:52:00;;;;;;;8.07;3.70;;;9.60;1.00;10.50;94162.00;;;;7397184;19;20152;-73
2023/05/29 03:54:27;;;;;;;8.67;3.77;;;9.60;1.00;10.60;94165.00;;;;7399439;19;20835;-73
2023/05/29 03:57:02;;;;;;;6.33;3.77;;;9.60;1.00;10.60;94192.00;;;;7398546;19;20144;-73
2023/05/29 03:59:29;;;;;;;4.93;3.33;;;9.60;1.00;10.60;94186.00;;;;7396089;19;20145;-73
2023/05/29 04:02:03;;;;;;;10.03;3.90;;;9.60;1.00;10.70;94172.00;;;;7395591;19;20164;-73
2023/05/29 04:04:46;;;;;;;7.53;3.57;;;9.50;1.00;10.60;94178.00;;;;7398087;19;20139;-73
2023/05/29 04:07:21;;;;;;;5.03;3.47;;;9.50;1.00;10.60;94183.00;;;;7397060;19;20148;-73
2023/05/29 04:09:48;;;;;;;6.00;3.80;;;9.50;1.00;10.70;94154.00;;;;7392177;19;20141;-73
2023/05/29 04:12:37;;;;;;;6.90;3.60;;;9.60;1.00;10.80;94178.00;;;;7394104;19;20145;-73
2023/05/29 04:15:37;;;;;;;12.50;3.70;;;9.70;1.00;11.00;94159.00;;;;7397226;19;20174;-73
2023/05/29 04:18:05;;;;;;;11.77;4.47;;;9.80;1.00;11.10;94185.00;;;;7395541;19;20489;-72
2023/05/29 04:20:38;;;;;;;7.43;4.20;;;9.90;1.00;11.20;94180.00;;;;7398190;19;20124;-73
2023/05/29 04:23:26;;;;;;;5.90;3.83;;;10.00;1.00;11.30;94198.00;;;;7394661;19;20156;-73
2023/05/29 04:26:01;;;;;;;6.97;4.00;;;10.00;1.00;11.40;94191.00;;;;7395665;19;20148;-73
2023/05/29 04:28:29;;;;;;;8.95;4.05;;;10.10;1.00;11.30;94187.00;;;;7397584;19;20137;-72
2023/05/29 04:31:03;;;;;;;8.40;3.77;;;10.10;1.00;11.60;94199.00;;;;7395451;19;20588;-72
2023/05/29 04:33:30;;;;;;;8.77;4.00;;;10.30;99.90;11.80;94198.00;;;;7392933;19;20153;-75
2023/05/29 04:36:04;;;;;;;6.32;3.45;;;10.50;99.90;12.00;94187.00;;;;7395262;19;20133;-76
2023/05/29 04:38:31;;;;;;;7.43;3.65;;;10.70;99.90;12.10;94199.00;;;;7395174;19;20125;-76
2023/05/29 04:41:08;;;;;;;7.60;3.78;;;10.80;99.90;12.20;94212.00;;;;7395068;19;20149;-76
2023/05/29 04:43:56;;;;;;;6.90;3.60;;;11.00;99.90;12.30;94213.00;;;;7394398;19;20640;-76
2023/05/29 04:46:24;;;;;;;6.60;3.85;;;11.20;99.90;12.50;94214.00;;;;7396446;19;20492;-77
2023/05/29 04:48:58;;;;;;;7.25;3.55;;;11.30;99.90;12.60;94206.00;;;;7394922;19;20152;-76
2023/05/29 04:51:32;;;;;;;4.90;3.35;;;11.40;99.90;12.70;94225.00;;;;7395353;19;20679;-76
2023/05/29 04:54:09;;;;;;;6.60;3.40;;;11.50;99.90;12.70;94207.00;;;;7396233;19;20638;-76
2023/05/29 04:56:43;;;;;;;5.78;3.85;;;11.60;99.90;12.90;94190.00;;;;7396139;19;20137;-76
2023/05/29 04:59:17;;;;;;;6.38;3.45;;;11.80;99.90;13.10;94219.00;;;;7393236;19;20151;-76
2023/05/29 05:01:51;;;;;;;6.60;4.03;;;11.90;99.90;13.20;94226.00;;;;7394363;19;20141;-76
2023/05/29 05:04:32;;;;;;;8.18;3.67;;;12.00;99.90;13.40;94233.00;;;;7395035;19;20153;-76
2023/05/29 05:07:06;;;;;;;5.85;3.63;;;12.10;99.90;13.60;94232.00;;;;7394891;19;20490;-76
2023/05/29 05:09:33;;;;;;;6.93;3.75;;;12.20;99.90;13.70;94232.00;;;;7396460;19;20143;-76
2023/05/29 05:12:24;;;;;;;7.35;4.10;;;12.40;99.90;13.90;94212.00;;;;7394373;19;20176;-76
2023/05/29 05:14:51;;;;;;;7.97;3.33;;;12.50;99.90;14.00;94235.00;;;;7394303;19;20174;-76
2023/05/29 05:17:25;;;;;;;6.05;3.70;;;12.70;99.90;14.20;94233.00;;;;7394383;19;20137;-76
2023/05/29 05:19:59;;;;;;;5.38;3.85;;;12.80;99.90;14.30;94235.00;;;;7394440;19;20475;-76
2023/05/29 05:22:33;;;;;;;9.70;4.20;;;13.00;99.90;14.50;94222.00;;;;7394346;19;20159;-76
2023/05/29 05:25:00;;;;;;;8.25;3.95;;;13.20;99.90;14.50;94208.00;;;;7394282;19;20168;-76
2023/05/29 05:27:34;;;;;;;12.40;3.97;;;13.40;99.90;14.60;94232.00;;;;7394548;19;20726;-76
2023/05/29 05:30:03;;;;;;;8.15;3.70;;;13.50;99.90;14.80;94231.00;;;;7401205;19;20627;-76
2023/05/29 05:32:36;;;;;;;5.78;3.40;;;13.60;99.90;14.90;94235.00;;;;7401558;19;20136;-76
2023/05/29 05:35:11;;;;;;;8.48;3.80;;;13.70;99.90;15.10;94231.00;;;;7398564;19;20143;-76
2023/05/29 05:37:57;;;;;;;11.60;4.25;;;13.80;1.00;15.10;94224.00;;;;7399446;19;20140;-76
2023/05/29 05:40:32;;;;;;;7.00;3.40;;;13.90;1.00;15.40;94241.00;;;;7402056;19;20149;-76
2023/05/29 05:43:06;;;;;;;7.60;3.95;;;14.10;1.00;15.40;94237.00;;;;7403309;19;20144;-76
2023/05/29 05:45:42;;;;;;;7.28;4.35;;;14.20;1.00;15.50;94236.00;;;;7403229;19;20137;-76
2023/05/29 05:48:09;;;;;;;7.57;4.10;;;14.40;1.00;15.80;94246.00;;;;7403261;19;20153;-76
2023/05/29 05:50:42;;;;;;;5.93;3.88;;;14.40;1.00;15.90;94221.00;;;;7403024;19;20595;-76
2023/05/29 05:53:17;;;;;;;10.95;3.90;;;14.50;1.00;16.10;94244.00;;;;7401448;19;20152;-76
2023/05/29 05:55:44;;;;;;;6.35;3.97;;;14.70;1.00;16.40;94257.00;;;;7390141;19;20583;-76
2023/05/29 05:58:32;;;;;;;6.15;3.60;;;14.90;1.00;16.70;94235.00;;;;7377996;19;20192;-76
2023/05/29 06:01:08;;;;;;;5.15;3.78;;;15.20;1.00;17.10;94232.00;;;;7385882;19;20459;-77
2023/05/29 06:03:41;;;;;;;7.30;3.78;;;15.50;1.00;17.20;94237.00;;;;7383972;19;20175;-76
2023/05/29 06:06:17;;;;;;;6.25;3.63;;;15.80;1.00;17.60;94257.00;;;;7386125;19;20468;-76
2023/05/29 06:08:52;;;;;;;6.57;3.90;;;16.20;1.00;17.60;94258.00;;;;7385879;19;20135;-74
2023/05/29 06:11:19;;;;;;;6.30;3.72;;;16.50;1.00;17.80;94250.00;;;;7385223;19;20485;-74
2023/05/29 06:13:53;;;;;;;6.88;3.67;;;16.80;1.00;18.10;94254.00;;;;7385988;19;20129;-74
2023/05/29 06:16:20;;;;;;;4.72;3.70;;;17.20;42.00;18.30;94259.00;;;;7384434;19;20145;-74
2023/05/29 06:18:55;;;;;;;8.45;3.63;;;17.50;46.90;18.50;94257.00;;;;7385910;19;20156;-74
2023/05/29 06:21:22;;;;;;;9.05;3.58;;;17.60;1.00;19.00;94268.00;;;;7386027;19;20139;-73
2023/05/29 06:23:55;;;;;;;4.15;3.35;;;17.80;1.00;18.90;94264.00;;;;7384608;19;20476;-75
2023/05/29 06:26:24;;;;;;;5.95;4.00;;;18.10;1.00;19.40;94269.00;;;;7383784;19;20129;-75
2023/05/29 06:28:59;;;;;;;7.15;3.80;;;18.30;1.00;20.30;94266.00;;;;7386041;19;20129;-75
2023/05/29 06:31:26;;;;;;;5.25;3.65;;;18.30;1.00;20.10;94239.00;;;;7384670;19;20152;-74
2023/05/29 06:34:00;;;;;;;6.88;3.90;;;18.40;99.90;20.30;94260.00;;;;7383586;19;20611;-75
2023/05/29 06:36:28;;;;;;;5.25;3.75;;;;;20.10;94274.00;;;;7386124;19;20129;-74
2023/05/29 06:39:03;;;;;;;8.27;3.83;;;;;20.90;94275.00;;;;7384735;19;20138;-75
2023/05/29 06:41:47;;;;;;;7.57;4.03;;;18.70;99.90;21.50;94280.00;;;;7385333;19;20148;-74
2023/05/29 06:44:20;;;;;;;7.22;4.03;;;18.90;99.90;21.50;94268.00;;;;7386285;19;20137;-74
2023/05/29 06:46:48;;;;;;;6.50;4.13;;;19.00;99.90;20.90;94280.00;;;;7381776;19;20156;-74
2023/05/29 06:49:22;;;;;;;7.25;4.10;;;19.10;99.90;20.90;94281.00;;;;7385170;19;20133;-74
2023/05/29 06:51:55;;;;;;;8.10;4.07;;;19.00;99.90;21.00;94291.00;;;;7384891;19;20125;-74
2023/05/29 06:54:29;;;;;;;5.68;3.67;;;19.00;99.90;20.70;94295.00;;;;7384068;19;20156;-74
2023/05/29 06:57:04;;;;;;;10.38;3.80;;;19.00;99.90;20.90;94296.00;;;;7378863;19;20135;-75
2023/05/29 06:59:51;;;;;;;5.15;3.83;;;18.80;99.90;20.90;94285.00;;;;7380102;19;20148;-74
2023/05/29 07:02:25;;;;;;;5.10;4.00;;;18.80;99.90;20.70;94303.00;;;;7380943;19;20192;-75
2023/05/29 07:05:05;;;;;;;6.72;3.97;;;18.80;99.90;20.00;94284.00;;;;7381231;19;20133;-74
2023/05/29 07:07:55;;;;;;;5.65;3.97;;;18.80;99.90;19.90;94318.00;;;;7378776;19;20148;-74
2023/05/29 07:10:29;;;;;;;9.68;4.40;;;18.60;99.90;20.20;94303.00;;;;7380214;19;20546;-74
2023/05/29 07:13:06;;;;;;;5.60;3.70;;;;;20.00;94321.00;;;;7379322;19;20163;-74
2023/05/29 07:15:40;;;;;;;6.95;3.78;;;;;20.10;94320.00;;;;7379526;19;20607;-74
2023/05/29 07:18:08;;;;;;;11.75;4.22;;;;;20.20;94318.00;;;;7378748;19;20156;-73
2023/05/29 07:20:42;;;;;;;9.18;3.75;;;18.60;99.90;20.40;94298.00;;;;7378426;19;20506;-74
2023/05/29 07:23:16;;;;;;;7.50;3.85;;;18.70;99.90;20.50;94318.00;;;;7380656;19;20135;-74
2023/05/29 07:25:43;;;;;;;6.50;3.72;;;18.80;99.90;20.70;94321.00;;;;7379438;19;20132;-74
2023/05/29 07:28:16;;;;;;;6.57;4.07;;;18.80;99.90;20.30;94309.00;;;;7378255;19;20140;-75
2023/05/29 07:30:51;;;;;;;6.93;3.67;;;18.90;83.90;20.40;94309.00;;;;7377963;19;20136;-74
2023/05/29 07:33:18;;;;;;;9.95;3.78;;;18.90;87.20;20.20;94328.00;;;;7385136;19;20678;-75
2023/05/29 07:35:52;;;;;;;9.52;4.13;;;19.10;51.20;20.60;94322.00;;;;7393030;19;20615;-74
2023/05/29 07:38:26;;;;;;;6.18;4.13;;;19.00;42.50;20.80;94311.00;;;;7393061;19;20125;-75
2023/05/29 07:40:53;;;;;;;4.68;3.83;;;19.10;28.30;21.00;94316.00;;;;7394008;19;20201;-75
2023/05/29 07:43:27;;;;;;;6.13;3.72;;;19.20;9.10;21.20;94325.00;;;;7394118;19;20144;-75
2023/05/29 07:45:54;;;;;;;6.40;4.25;;;19.30;6.60;20.90;94322.00;;;;7395994;19;20117;-75
2023/05/29 07:48:28;;;;;;;5.47;3.88;;;19.30;3.60;20.70;94332.00;;;;7396127;19;20640;-75
2023/05/29 07:51:02;;;;;;;5.45;3.95;;;19.40;20.60;20.90;94337.00;;;;7394917;19;20133;-75
2023/05/29 07:53:36;;;;;;;6.03;4.10;;;19.60;25.20;21.20;94340.00;;;;7395556;19;20120;-75
2023/05/29 07:56:03;;;;;;;6.13;4.25;;;19.60;13.60;21.20;94340.00;;;;7386378;19;20149;-75
2023/05/29 07:58:37;;;;;;;9.40;4.38;;;19.70;15.50;21.00;94334.00;;;;7392047;19;20489;-76
2023/05/29 08:01:05;;;;;;;8.27;4.18;;;19.80;8.60;21.10;94331.00;;;;7395201;19;20208;-75
2023/05/29 08:03:47;;;;;;;7.07;4.63;;;19.90;1.00;21.10;94343.00;;;;7389449;19;20191;-74
2023/05/29 08:06:21;;;;;;;6.15;4.60;;;20.00;1.00;21.50;94343.00;;;;7391699;19;20480;-75
2023/05/29 08:08:56;;;;;;;8.25;4.75;;;20.10;1.00;21.50;94335.00;;;;7393213;19;20204;-76
2023/05/29 08:11:23;;;;;;;7.15;4.55;;;20.20;1.00;21.60;94333.00;;;;7397502;19;20121;-74
2023/05/29 08:13:58;;;;;;;6.10;4.18;;;20.30;42.90;21.70;94317.00;;;;7395401;19;20457;-74
2023/05/29 08:16:28;;;;;;;7.80;4.88;;;;;22.10;94331.00;;;;7394574;19;20591;-75
2023/05/29 08:19:05;;;;;;;7.53;4.25;;;;;22.50;94335.00;;;;7393748;19;20302;-75
2023/05/29 08:21:32;;;;;;;7.60;4.38;;;;;23.10;94332.00;;;;7396194;19;20134;-75
2023/05/29 08:24:06;;;;;;;6.95;3.97;;;;;23.40;94336.00;;;;7390424;19;20123;-75
2023/05/29 08:26:41;;;;;;;8.05;4.18;;;;;23.30;94328.00;;;;7395500;19;20188;-75
2023/05/29 08:29:16;;;;;;;6.22;3.95;;;;;23.00;94333.00;;;;7397505;19;20175;-75
2023/05/29 08:31:55;;;;;;;8.10;4.53;;;;;23.70;94335.00;;;;7397384;19;20121;-75
2023/05/29 08:34:26;;;;;;;6.30;4.63;;;;;22.90;94338.00;;;;7393912;19;20125;-75
2023/05/29 08:37:05;;;;;;;7.95;4.32;;;;;23.00;94339.00;;;;7396236;19;20599;-75
2023/05/29 08:39:36;;;;;;;8.90;4.40;;;;;23.10;94340.00;;;;7394808;19;20160;-75
2023/05/29 08:42:22;;;;;;;6.72;4.38;;;;;23.30;94340.00;;;;7395173;19;20471;-74
2023/05/29 08:45:04;;;;;;;8.55;4.70;;;;;23.50;94337.00;;;;7396671;19;20137;-74
2023/05/29 08:47:43;;;;;;;7.15;4.80;;;;;23.50;94340.00;;;;7395933;19;20143;-74
2023/05/29 08:50:19;;;;;;;4.70;4.07;;;;;23.30;94347.00;;;;7395325;19;20161;-75
2023/05/29 08:52:47;;;;;;;6.32;4.65;;;;;23.80;94341.00;;;;7394336;19;20148;-75
2023/05/29 08:55:23;;;;;;;7.25;4.55;;;;;23.40;94340.00;;;;7395388;19;20137;-75
2023/05/29 08:57:58;;;;;;;6.40;4.32;;;;;24.10;94337.00;;;;7393637;19;20137;-75
2023/05/29 09:00:33;;;;;;;8.70;4.88;;;;;24.70;94338.00;;;;7393163;19;20159;-75
2023/05/29 09:03:07;;;;;;;6.80;4.30;;;;;24.60;94335.00;;;;7397636;19;20168;-75
2023/05/29 09:05:48;;;;;;;5.97;4.60;;;;;25.40;94332.00;;;;7403871;19;20139;-76
2023/05/29 09:08:23;;;;;;;11.45;4.70;;;;;25.00;94335.00;;;;7399950;19;20602;-76
2023/05/29 09:10:57;;;;;;;6.35;4.22;;;;;25.00;94335.00;;;;7402914;19;20137;-76
2023/05/29 09:13:31;;;;;;;6.25;4.03;;;;;25.70;94334.00;;;;7400480;19;20480;-75
2023/05/29 09:16:01;;;;;;;6.97;4.30;;;;;25.50;94341.00;;;;7401267;19;20129;-74
2023/05/29 09:18:37;;;;;;;6.93;4.55;;;23.00;99.90;25.70;94344.00;;;;7401991;19;20141;-75
2023/05/29 09:21:24;;;;;;;7.22;4.53;;;23.40;99.90;25.90;94345.00;;;;7397365;19;20137;-76
2023/05/29 09:24:05;;;;;;;7.85;4.35;;;23.30;99.90;25.10;94345.00;;;;7402115;19;20583;-75
2023/05/29 09:26:39;;;;;;;8.98;4.70;;;23.20;99.90;25.20;94348.00;;;;7398786;19;20576;-75
2023/05/29 09:29:06;;;;;;;6.38;4.53;;;22.90;99.90;25.20;94350.00;;;;7399874;19;20139;-75
2023/05/29 09:31:47;;;;;;;7.03;4.57;;;22.80;99.90;25.30;94343.00;;;;7398216;19;20137;-75
2023/05/29 09:34:26;;;;;;;6.30;4.22;;;22.90;99.90;25.50;94349.00;;;;7401109;19;20139;-75
2023/05/29 09:37:08;;;;;;;9.77;4.80;;;23.10;99.90;25.40;94365.00;;;;7400651;19;20588;-75
2023/05/29 09:39:43;;;;;;;6.72;4.75;;;23.30;99.90;25.70;94355.00;;;;7399066;19;20137;-77
2023/05/29 09:42:17;;;;;;;9.48;4.80;;;23.60;99.90;25.90;94363.00;;;;7402609;19;20591;-75
2023/05/29 09:44:51;;;;;;;6.20;4.40;;;23.70;99.90;25.10;94361.00;;;;7399919;19;20636;-75
2023/05/29 09:47:25;;;;;;;8.15;4.50;;;23.60;99.90;24.80;94366.00;;;;7401239;19;20615;-75
2023/05/29 09:50:01;;;;;;;8.15;4.65;;;23.60;99.90;25.40;94350.00;;;;7400243;19;20166;-75
2023/05/29 09:52:32;;;;;;;9.90;4.45;;;23.40;99.90;25.40;94359.00;;;;7401493;19;20623;-74
2023/05/29 09:55:06;;;;;;;5.78;4.45;;;23.30;99.90;25.40;94364.00;;;;7399550;19;20151;-76
2023/05/29 09:57:35;;;;;;;5.25;4.40;;;23.30;99.90;25.80;94345.00;;;;7402576;19;20124;-76
2023/05/29 10:00:13;;;;;;;10.45;5.20;;;23.50;99.90;25.90;94368.00;;;;7399980;19;20113;-76
2023/05/29 10:02:59;;;;;;;6.20;4.35;;;23.70;1.00;25.90;94364.00;;;;7398595;19;20172;-76
2023/05/29 10:05:39;;;;;;;9.40;4.47;;;23.80;99.90;25.90;94354.00;;;;7397607;19;20630;-76
2023/05/29 10:08:15;;;;;;;7.63;4.30;;;23.80;99.90;26.10;94352.00;;;;7402425;19;20149;-76
2023/05/29 10:11:03;;;;;;;10.60;4.88;;;23.80;99.90;26.10;94364.00;;;;7401421;19;20152;-76
2023/05/29 10:13:41;;;;;;;7.35;4.43;;;25.50;99.90;26.50;94359.00;;;;7398652;19;20141;-76
2023/05/29 10:16:14;;;;;;;8.35;4.40;;;24.40;99.90;26.70;94349.00;;;;7395324;19;20509;-75
2023/05/29 10:18:55;;;;;;;6.18;4.60;;;24.90;99.90;27.10;94353.00;;;;7399955;19;20152;-77
2023/05/29 10:21:30;;;;;;;5.95;4.00;;;24.60;99.90;26.30;94357.00;;;;7399502;19;20575;-76
2023/05/29 10:23:58;;;;;;;6.90;4.43;;;24.80;99.90;26.70;94353.00;;;;7397681;19;20583;-77
2023/05/29 10:26:40;;;;;;;5.88;4.43;;;24.80;99.90;26.30;94356.00;;;;7398613;19;21043;-76
2023/05/29 10:29:39;;;;;;;8.00;4.28;;;24.70;99.90;26.30;94358.00;;;;7401093;19;20133;-75
2023/05/29 10:32:38;;;;;;;8.45;4.68;;;24.80;99.90;25.90;94347.00;;;;7400723;19;20663;-75
2023/05/29 10:35:43;;;;;;;6.63;4.63;;;24.90;99.90;26.30;94355.00;;;;7397696;19;20121;-76
2023/05/29 10:38:19;;;;;;;7.57;4.38;;;24.90;99.90;26.00;94352.00;;;;7397458;19;20152;-75
2023/05/29 10:40:52;;;;;;;7.43;4.50;;;24.60;99.90;25.80;94353.00;;;;7397540;19;20152;-77
2023/05/29 10:43:42;;;;;;;7.00;4.32;;;24.70;99.90;26.00;94339.00;;;;7401232;19;20125;-75
2023/05/29 10:46:16;;;;;;;12.55;4.72;;;24.90;99.90;26.40;94349.00;;;;7401046;19;20485;-74
2023/05/29 10:48:43;;;;;;;6.57;4.95;;;24.80;99.90;26.40;94337.00;;;;7398443;19;20287;-77
2023/05/29 10:51:28;;;;;;;5.80;4.18;;;25.00;99.90;27.20;94352.00;;;;7399444;19;20137;-77
2023/05/29 10:54:05;;;;;;;7.18;4.07;;;25.20;99.90;27.80;94349.00;;;;7395913;19;20136;-77
2023/05/29 10:56:43;;;;;;;11.45;4.47;;;25.90;99.90;27.60;94355.00;;;;7391741;19;20161;-75
2023/05/29 10:59:11;;;;;;;5.72;3.95;;;26.20;99.90;27.20;94324.00;;;;7398283;19;20192;-76
2023/05/29 11:01:45;;;;;;;6.88;4.20;;;26.00;99.90;27.20;94347.00;;;;7396436;19;20262;-76
2023/05/29 11:04:22;;;;;;;5.57;4.10;;;26.10;99.90;27.60;94355.00;;;;7392858;19;20145;-76
2023/05/29 11:07:06;;;;;;;5.45;3.97;;;26.10;99.90;27.50;94349.00;;;;7397993;19;20124;-76
2023/05/29 11:09:40;;;;;;;6.82;4.22;;;26.20;99.90;27.80;94345.00;;;;7397877;19;20151;-75
2023/05/29 11:12:33;;;;;;;8.93;4.63;;;26.30;99.90;27.00;94349.00;;;;7396360;19;20178;-75
2023/05/29 11:15:13;;;;;;;11.15;4.90;;;26.40;99.90;26.90;94344.00;;;;7393051;19;20140;-75
2023/05/29 11:17:40;;;;;;;9.38;4.53;;;26.30;99.90;27.20;94355.00;;;;7395965;19;20203;-77
2023/05/29 11:20:49;;;;;;;8.25;4.28;;;26.30;99.90;27.70;94333.00;;;;7397544;19;20132;-76
2023/05/29 11:23:31;;;;;;;7.20;4.32;;;26.30;99.90;27.80;94332.00;;;;7399583;19;20135;-75
2023/05/29 11:25:59;;;;;;;12.18;4.38;;;26.60;99.90;27.80;94329.00;;;;7394158;19;20580;-75
2023/05/29 11:28:33;;;;;;;9.40;4.10;;;26.90;99.90;27.70;94341.00;;;;7395253;19;20162;-75
2023/05/29 11:31:08;;;;;;;8.25;4.65;;;27.10;99.90;28.40;94352.00;;;;7398300;19;20139;-75
2023/05/29 11:33:49;;;;;;;6.20;4.00;;;27.20;99.90;28.60;94351.00;;;;7396832;19;20587;-75
2023/05/29 11:36:22;;;;;;;5.03;3.97;;;27.20;99.90;28.40;94353.00;;;;7393901;19;20151;-75
2023/05/29 11:38:56;;;;;;;5.78;4.38;;;27.40;99.90;28.00;94356.00;;;;7399615;19;20466;-77
2023/05/29 11:41:24;;;;;;;5.68;4.00;;;27.10;99.90;27.70;94339.00;;;;7398069;19;20154;-79
2023/05/29 11:44:02;;;;;;;6.25;4.43;;;27.10;99.90;28.60;94339.00;;;;7399653;19;20138;-79
2023/05/29 11:46:32;;;;;;;5.78;4.10;;;27.30;99.90;28.10;94330.00;;;;7397275;19;20173;-76